sensor_id;sensor_type;location;lat;lon;timestamp;P1;durP1;ratioP1;P2;durP2;ratioP2
43226;SDS011;28839;52.404;9.808;2024-03-06T00:04:57;21.80;;;13.00;;
43226;SDS011;28839;52.404;9.808;2024-03-06T00:11:52;24.58;;;14.02;;
43226;SDS011;28839;52.404;9.808;2024-03-06T00:18:46;28.65;;;14.45;;
43226;SDS011;28839;52.404;9.808;2024-03-06T00:25:40;32.92;;;15.55;;
43226;SDS011;28839;52.404;9.808;2024-03-06T00:32:35;21.83;;;14.07;;
43226;SDS011;28839;52.404;9.808;2024-03-06T00:46:22;23.83;;;14.52;;
43226;SDS011;28839;52.404;9.808;2024-03-06T00:53:17;22.63;;;14.00;;
43226;SDS011;28839;52.404;9.808;2024-03-06T01:00:12;25.60;;;15.38;;
43226;SDS011;28839;52.404;9.808;2024-03-06T01:07:07;25.80;;;15.05;;
43226;SDS011;28839;52.404;9.808;2024-03-06T01:14:02;24.42;;;14.50;;
43226;SDS011;28839;52.404;9.808;2024-03-06T01:20:56;26.00;;;15.40;;
43226;SDS011;28839;52.404;9.808;2024-03-06T01:27:50;28.50;;;16.55;;
43226;SDS011;28839;52.404;9.808;2024-03-06T01:34:45;25.90;;;15.80;;
43226;SDS011;28839;52.404;9.808;2024-03-06T01:41:44;25.17;;;15.50;;
43226;SDS011;28839;52.404;9.808;2024-03-06T01:48:38;26.92;;;15.98;;
43226;SDS011;28839;52.404;9.808;2024-03-06T01:55:33;24.57;;;15.57;;
43226;SDS011;28839;52.404;9.808;2024-03-06T02:02:28;23.92;;;16.70;;
43226;SDS011;28839;52.404;9.808;2024-03-06T02:09:22;27.43;;;16.70;;
43226;SDS011;28839;52.404;9.808;2024-03-06T02:16:18;28.45;;;17.12;;
43226;SDS011;28839;52.404;9.808;2024-03-06T02:23:13;26.02;;;16.52;;
43226;SDS011;28839;52.404;9.808;2024-03-06T02:30:10;22.77;;;15.27;;
43226;SDS011;28839;52.404;9.808;2024-03-06T02:37:04;27.42;;;16.95;;
43226;SDS011;28839;52.404;9.808;2024-03-06T02:43:59;25.70;;;16.52;;
43226;SDS011;28839;52.404;9.808;2024-03-06T02:50:53;23.58;;;16.45;;
43226;SDS011;28839;52.404;9.808;2024-03-06T02:57:47;27.57;;;17.67;;
43226;SDS011;28839;52.404;9.808;2024-03-06T03:04:42;28.35;;;18.42;;
43226;SDS011;28839;52.404;9.808;2024-03-06T03:11:36;26.42;;;16.58;;
43226;SDS011;28839;52.404;9.808;2024-03-06T03:18:29;27.17;;;16.33;;
43226;SDS011;28839;52.404;9.808;2024-03-06T03:25:24;32.47;;;17.02;;
43226;SDS011;28839;52.404;9.808;2024-03-06T03:32:18;26.45;;;16.15;;
43226;SDS011;28839;52.404;9.808;2024-03-06T03:39:12;24.10;;;15.02;;
43226;SDS011;28839;52.404;9.808;2024-03-06T03:46:09;23.27;;;15.68;;
43226;SDS011;28839;52.404;9.808;2024-03-06T03:53:03;24.00;;;14.80;;
43226;SDS011;28839;52.404;9.808;2024-03-06T03:59:57;25.57;;;17.07;;
43226;SDS011;28839;52.404;9.808;2024-03-06T04:06:52;21.83;;;12.80;;
43226;SDS011;28839;52.404;9.808;2024-03-06T04:13:46;26.48;;;14.98;;
43226;SDS011;28839;52.404;9.808;2024-03-06T04:20:40;29.25;;;16.42;;
43226;SDS011;28839;52.404;9.808;2024-03-06T04:27:35;28.52;;;17.62;;
43226;SDS011;28839;52.404;9.808;2024-03-06T04:34:29;31.02;;;18.48;;
43226;SDS011;28839;52.404;9.808;2024-03-06T04:41:22;26.98;;;17.20;;
43226;SDS011;28839;52.404;9.808;2024-03-06T04:48:18;24.00;;;16.83;;
43226;SDS011;28839;52.404;9.808;2024-03-06T04:55:11;29.60;;;17.92;;
43226;SDS011;28839;52.404;9.808;2024-03-06T05:02:07;27.87;;;18.02;;
43226;SDS011;28839;52.404;9.808;2024-03-06T05:09:02;29.17;;;17.77;;
43226;SDS011;28839;52.404;9.808;2024-03-06T05:15:56;28.67;;;16.77;;
43226;SDS011;28839;52.404;9.808;2024-03-06T05:22:50;30.23;;;18.50;;
43226;SDS011;28839;52.404;9.808;2024-03-06T05:29:45;27.65;;;16.98;;
43226;SDS011;28839;52.404;9.808;2024-03-06T05:36:39;27.20;;;17.50;;
43226;SDS011;28839;52.404;9.808;2024-03-06T05:43:32;29.98;;;19.05;;
43226;SDS011;28839;52.404;9.808;2024-03-06T05:50:27;31.87;;;18.90;;
43226;SDS011;28839;52.404;9.808;2024-03-06T05:57:21;32.08;;;19.17;;
43226;SDS011;28839;52.404;9.808;2024-03-06T06:04:15;34.38;;;19.60;;
43226;SDS011;28839;52.404;9.808;2024-03-06T06:11:10;31.02;;;18.50;;
43226;SDS011;28839;52.404;9.808;2024-03-06T06:18:04;32.25;;;19.30;;
43226;SDS011;28839;52.404;9.808;2024-03-06T06:24:58;28.40;;;15.53;;
43226;SDS011;28839;52.404;9.808;2024-03-06T06:31:53;30.35;;;16.73;;
43226;SDS011;28839;52.404;9.808;2024-03-06T06:38:47;33.35;;;20.45;;
43226;SDS011;28839;52.404;9.808;2024-03-06T06:45:41;31.90;;;19.00;;
43226;SDS011;28839;52.404;9.808;2024-03-06T06:52:36;33.73;;;19.37;;
43226;SDS011;28839;52.404;9.808;2024-03-06T06:59:30;28.33;;;17.62;;
43226;SDS011;28839;52.404;9.808;2024-03-06T07:06:24;29.98;;;17.60;;
43226;SDS011;28839;52.404;9.808;2024-03-06T07:13:19;28.83;;;17.75;;
43226;SDS011;28839;52.404;9.808;2024-03-06T07:20:13;31.85;;;19.10;;
43226;SDS011;28839;52.404;9.808;2024-03-06T07:27:07;30.27;;;18.37;;
43226;SDS011;28839;52.404;9.808;2024-03-06T07:34:02;29.25;;;19.00;;
43226;SDS011;28839;52.404;9.808;2024-03-06T07:40:56;29.52;;;19.42;;
43226;SDS011;28839;52.404;9.808;2024-03-06T07:47:50;30.98;;;19.12;;
43226;SDS011;28839;52.404;9.808;2024-03-06T07:54:45;30.50;;;17.50;;
43226;SDS011;28839;52.404;9.808;2024-03-06T08:01:39;32.67;;;17.73;;
43226;SDS011;28839;52.404;9.808;2024-03-06T08:08:33;31.37;;;19.12;;
43226;SDS011;28839;52.404;9.808;2024-03-06T08:15:28;28.95;;;19.02;;
43226;SDS011;28839;52.404;9.808;2024-03-06T08:29:15;29.73;;;17.58;;
43226;SDS011;28839;52.404;9.808;2024-03-06T08:36:11;36.00;;;19.42;;
43226;SDS011;28839;52.404;9.808;2024-03-06T08:43:05;32.72;;;20.15;;
43226;SDS011;28839;52.404;9.808;2024-03-06T08:50:01;29.25;;;18.05;;
43226;SDS011;28839;52.404;9.808;2024-03-06T08:56:56;34.80;;;17.83;;
43226;SDS011;28839;52.404;9.808;2024-03-06T09:03:51;28.98;;;18.45;;
43226;SDS011;28839;52.404;9.808;2024-03-06T09:10:44;34.92;;;20.90;;
43226;SDS011;28839;52.404;9.808;2024-03-06T09:17:39;33.63;;;20.73;;
43226;SDS011;28839;52.404;9.808;2024-03-06T09:24:33;32.75;;;20.08;;
43226;SDS011;28839;52.404;9.808;2024-03-06T09:31:29;28.52;;;17.65;;
43226;SDS011;28839;52.404;9.808;2024-03-06T09:38:24;32.70;;;20.42;;
43226;SDS011;28839;52.404;9.808;2024-03-06T09:45:18;36.53;;;22.67;;
43226;SDS011;28839;52.404;9.808;2024-03-06T09:52:13;34.88;;;22.05;;
43226;SDS011;28839;52.404;9.808;2024-03-06T09:59:08;33.78;;;18.17;;
43226;SDS011;28839;52.404;9.808;2024-03-06T10:06:03;46.67;;;28.23;;
43226;SDS011;28839;52.404;9.808;2024-03-06T10:12:57;37.67;;;22.93;;
43226;SDS011;28839;52.404;9.808;2024-03-06T10:19:53;34.78;;;20.15;;
43226;SDS011;28839;52.404;9.808;2024-03-06T10:26:47;29.65;;;18.85;;
43226;SDS011;28839;52.404;9.808;2024-03-06T10:33:42;33.25;;;22.83;;
43226;SDS011;28839;52.404;9.808;2024-03-06T10:47:31;33.75;;;21.70;;
43226;SDS011;28839;52.404;9.808;2024-03-06T10:54:29;30.48;;;18.45;;
43226;SDS011;28839;52.404;9.808;2024-03-06T11:01:25;27.77;;;17.00;;
43226;SDS011;28839;52.404;9.808;2024-03-06T11:08:20;30.25;;;20.17;;
43226;SDS011;28839;52.404;9.808;2024-03-06T11:15:15;34.08;;;21.08;;
43226;SDS011;28839;52.404;9.808;2024-03-06T11:22:10;31.63;;;19.47;;
43226;SDS011;28839;52.404;9.808;2024-03-06T11:29:04;32.85;;;19.92;;
43226;SDS011;28839;52.404;9.808;2024-03-06T11:36:19;24.02;;;14.35;;
43226;SDS011;28839;52.404;9.808;2024-03-06T11:43:25;29.80;;;16.08;;
43226;SDS011;28839;52.404;9.808;2024-03-06T11:50:19;28.90;;;19.10;;
43226;SDS011;28839;52.404;9.808;2024-03-06T11:57:13;31.80;;;19.30;;
43226;SDS011;28839;52.404;9.808;2024-03-06T12:04:09;27.13;;;17.25;;
43226;SDS011;28839;52.404;9.808;2024-03-06T12:11:04;33.83;;;19.87;;
43226;SDS011;28839;52.404;9.808;2024-03-06T12:17:59;31.77;;;19.95;;
43226;SDS011;28839;52.404;9.808;2024-03-06T12:24:59;33.80;;;21.02;;
43226;SDS011;28839;52.404;9.808;2024-03-06T12:31:53;35.05;;;21.20;;
43226;SDS011;28839;52.404;9.808;2024-03-06T12:38:53;34.47;;;22.02;;
43226;SDS011;28839;52.404;9.808;2024-03-06T12:45:49;36.35;;;22.23;;
43226;SDS011;28839;52.404;9.808;2024-03-06T12:52:42;32.78;;;22.17;;
43226;SDS011;28839;52.404;9.808;2024-03-06T12:59:37;31.23;;;21.37;;
43226;SDS011;28839;52.404;9.808;2024-03-06T13:06:33;35.38;;;23.30;;
43226;SDS011;28839;52.404;9.808;2024-03-06T13:13:27;37.10;;;23.75;;
43226;SDS011;28839;52.404;9.808;2024-03-06T13:27:16;35.22;;;21.98;;
43226;SDS011;28839;52.404;9.808;2024-03-06T13:34:10;34.78;;;22.62;;
43226;SDS011;28839;52.404;9.808;2024-03-06T13:41:04;34.40;;;21.52;;
43226;SDS011;28839;52.404;9.808;2024-03-06T13:47:59;37.55;;;23.15;;
43226;SDS011;28839;52.404;9.808;2024-03-06T13:54:53;30.77;;;20.12;;
43226;SDS011;28839;52.404;9.808;2024-03-06T14:01:47;33.85;;;20.88;;
43226;SDS011;28839;52.404;9.808;2024-03-06T14:08:42;31.03;;;20.00;;
43226;SDS011;28839;52.404;9.808;2024-03-06T14:15:36;28.87;;;17.80;;
43226;SDS011;28839;52.404;9.808;2024-03-06T14:22:30;27.77;;;18.47;;
43226;SDS011;28839;52.404;9.808;2024-03-06T14:29:25;31.50;;;19.58;;
43226;SDS011;28839;52.404;9.808;2024-03-06T14:36:20;28.62;;;19.20;;
43226;SDS011;28839;52.404;9.808;2024-03-06T14:43:16;26.37;;;18.17;;
43226;SDS011;28839;52.404;9.808;2024-03-06T14:50:12;29.42;;;18.45;;
43226;SDS011;28839;52.404;9.808;2024-03-06T14:57:06;26.30;;;18.00;;
43226;SDS011;28839;52.404;9.808;2024-03-06T15:04:01;25.15;;;17.42;;
43226;SDS011;28839;52.404;9.808;2024-03-06T15:10:56;27.35;;;19.10;;
43226;SDS011;28839;52.404;9.808;2024-03-06T15:17:50;26.52;;;17.67;;
43226;SDS011;28839;52.404;9.808;2024-03-06T15:24:44;27.05;;;18.67;;
43226;SDS011;28839;52.404;9.808;2024-03-06T15:31:39;27.87;;;17.85;;
43226;SDS011;28839;52.404;9.808;2024-03-06T15:38:33;24.80;;;17.83;;
43226;SDS011;28839;52.404;9.808;2024-03-06T15:45:27;26.83;;;17.10;;
43226;SDS011;28839;52.404;9.808;2024-03-06T15:52:22;22.30;;;16.58;;
43226;SDS011;28839;52.404;9.808;2024-03-06T15:59:16;24.63;;;17.30;;
43226;SDS011;28839;52.404;9.808;2024-03-06T16:06:09;23.85;;;14.68;;
43226;SDS011;28839;52.404;9.808;2024-03-06T16:13:04;21.25;;;14.15;;
43226;SDS011;28839;52.404;9.808;2024-03-06T16:19:59;24.10;;;14.07;;
43226;SDS011;28839;52.404;9.808;2024-03-06T16:26:56;26.40;;;14.93;;
43226;SDS011;28839;52.404;9.808;2024-03-06T16:33:52;21.92;;;15.07;;
43226;SDS011;28839;52.404;9.808;2024-03-06T16:40:46;24.90;;;15.30;;
43226;SDS011;28839;52.404;9.808;2024-03-06T16:47:40;24.42;;;15.95;;
43226;SDS011;28839;52.404;9.808;2024-03-06T16:54:35;22.17;;;15.45;;
43226;SDS011;28839;52.404;9.808;2024-03-06T17:01:30;25.12;;;17.37;;
43226;SDS011;28839;52.404;9.808;2024-03-06T17:08:23;23.25;;;15.95;;
43226;SDS011;28839;52.404;9.808;2024-03-06T17:15:19;23.58;;;16.17;;
43226;SDS011;28839;52.404;9.808;2024-03-06T17:22:13;24.00;;;16.60;;
43226;SDS011;28839;52.404;9.808;2024-03-06T17:29:07;26.90;;;16.60;;
43226;SDS011;28839;52.404;9.808;2024-03-06T17:36:02;23.70;;;16.00;;
43226;SDS011;28839;52.404;9.808;2024-03-06T17:42:56;24.52;;;15.38;;
43226;SDS011;28839;52.404;9.808;2024-03-06T17:49:50;24.52;;;17.25;;
43226;SDS011;28839;52.404;9.808;2024-03-06T17:56:45;24.23;;;16.67;;
43226;SDS011;28839;52.404;9.808;2024-03-06T18:03:39;22.95;;;15.93;;
43226;SDS011;28839;52.404;9.808;2024-03-06T18:10:33;22.60;;;15.73;;
43226;SDS011;28839;52.404;9.808;2024-03-06T18:17:29;26.25;;;17.55;;
43226;SDS011;28839;52.404;9.808;2024-03-06T18:24:23;24.33;;;16.42;;
43226;SDS011;28839;52.404;9.808;2024-03-06T18:31:19;25.20;;;16.60;;
43226;SDS011;28839;52.404;9.808;2024-03-06T18:38:14;23.80;;;15.80;;
43226;SDS011;28839;52.404;9.808;2024-03-06T18:45:08;26.05;;;17.05;;
43226;SDS011;28839;52.404;9.808;2024-03-06T18:52:03;25.10;;;17.27;;
43226;SDS011;28839;52.404;9.808;2024-03-06T18:58:58;21.60;;;16.03;;
43226;SDS011;28839;52.404;9.808;2024-03-06T19:12:46;23.17;;;16.15;;
43226;SDS011;28839;52.404;9.808;2024-03-06T19:19:42;26.70;;;17.67;;
43226;SDS011;28839;52.404;9.808;2024-03-06T19:26:36;28.08;;;16.45;;
43226;SDS011;28839;52.404;9.808;2024-03-06T19:33:30;23.38;;;15.95;;
43226;SDS011;28839;52.404;9.808;2024-03-06T19:40:25;29.33;;;18.10;;
43226;SDS011;28839;52.404;9.808;2024-03-06T19:47:20;29.48;;;19.30;;
43226;SDS011;28839;52.404;9.808;2024-03-06T19:54:13;33.42;;;19.25;;
43226;SDS011;28839;52.404;9.808;2024-03-06T20:01:09;25.73;;;18.70;;
43226;SDS011;28839;52.404;9.808;2024-03-06T20:08:03;32.03;;;19.80;;
43226;SDS011;28839;52.404;9.808;2024-03-06T20:14:57;26.23;;;19.10;;
43226;SDS011;28839;52.404;9.808;2024-03-06T20:21:53;29.00;;;18.27;;
43226;SDS011;28839;52.404;9.808;2024-03-06T20:28:47;28.48;;;19.35;;
43226;SDS011;28839;52.404;9.808;2024-03-06T20:35:42;32.42;;;24.35;;
43226;SDS011;28839;52.404;9.808;2024-03-06T20:42:37;30.17;;;21.20;;
43226;SDS011;28839;52.404;9.808;2024-03-06T20:49:31;29.40;;;20.42;;
43226;SDS011;28839;52.404;9.808;2024-03-06T20:56:25;30.00;;;21.05;;
43226;SDS011;28839;52.404;9.808;2024-03-06T21:03:20;32.45;;;22.62;;
43226;SDS011;28839;52.404;9.808;2024-03-06T21:10:14;31.20;;;19.55;;
43226;SDS011;28839;52.404;9.808;2024-03-06T21:17:08;33.33;;;21.00;;
43226;SDS011;28839;52.404;9.808;2024-03-06T21:24:03;35.40;;;21.70;;
43226;SDS011;28839;52.404;9.808;2024-03-06T21:30:58;49.25;;;29.58;;
43226;SDS011;28839;52.404;9.808;2024-03-06T21:37:52;34.72;;;23.00;;
43226;SDS011;28839;52.404;9.808;2024-03-06T21:44:47;48.53;;;33.13;;
43226;SDS011;28839;52.404;9.808;2024-03-06T21:51:41;40.08;;;27.77;;
43226;SDS011;28839;52.404;9.808;2024-03-06T21:58:34;31.30;;;20.27;;
43226;SDS011;28839;52.404;9.808;2024-03-06T22:05:30;42.77;;;30.17;;
43226;SDS011;28839;52.404;9.808;2024-03-06T22:12:23;27.13;;;18.20;;
43226;SDS011;28839;52.404;9.808;2024-03-06T22:19:18;29.58;;;19.70;;
43226;SDS011;28839;52.404;9.808;2024-03-06T22:33:10;27.35;;;18.90;;
43226;SDS011;28839;52.404;9.808;2024-03-06T22:40:04;26.00;;;16.67;;
43226;SDS011;28839;52.404;9.808;2024-03-06T22:47:02;36.13;;;20.83;;
43226;SDS011;28839;52.404;9.808;2024-03-06T22:53:56;26.90;;;17.55;;
43226;SDS011;28839;52.404;9.808;2024-03-06T23:00:50;30.55;;;17.15;;
43226;SDS011;28839;52.404;9.808;2024-03-06T23:07:45;28.87;;;17.55;;
43226;SDS011;28839;52.404;9.808;2024-03-06T23:14:39;24.23;;;15.65;;
43226;SDS011;28839;52.404;9.808;2024-03-06T23:21:33;26.80;;;16.45;;
43226;SDS011;28839;52.404;9.808;2024-03-06T23:28:29;27.73;;;16.00;;
43226;SDS011;28839;52.404;9.808;2024-03-06T23:35:23;24.40;;;15.98;;
43226;SDS011;28839;52.404;9.808;2024-03-06T23:42:17;25.17;;;15.10;;
43226;SDS011;28839;52.404;9.808;2024-03-06T23:49:12;23.85;;;15.45;;
43226;SDS011;28839;52.404;9.808;2024-03-06T23:56:06;26.35;;;15.65;;
